Time;durP1;ratioP1;P1;durP2;ratioP2;P2;SDS_P1;SDS_P2;PMS_P1;PMS_P2;Temp;Humidity;BMP_temperature;BMP_pressure;BME280_temperature;BME280_humidity;BME280_pressure;Samples;Min_cycle;Max_cycle;Signal;HPM_P1;HPM_P2
2022/03/13 00:02:17;;;;;;;11.33;7.80;;;0.20;70.20;;;;;;5075636;28;20257;-72
2022/03/13 00:04:49;;;;;;;10.53;7.63;;;0.30;69.70;;;;;;5070769;28;20571;-72
2022/03/13 00:07:25;;;;;;;10.23;6.50;;;0.30;68.50;;;;;;5069749;28;20235;-69
2022/03/13 00:09:51;;;;;;;15.97;8.30;;;0.30;67.80;;;;;;5071396;28;20269;-69
2022/03/13 00:12:28;;;;;;;10.03;7.67;;;0.30;67.50;;;;;;5075253;28;20213;-69
2022/03/13 00:15:00;;;;;;;12.43;6.77;;;0.30;67.30;;;;;;5067302;28;20180;-69
2022/03/13 00:17:29;;;;;;;8.97;7.67;;;0.20;67.40;;;;;;5071676;28;20681;-70
2022/03/13 00:20:02;;;;;;;8.33;6.73;;;0.10;67.40;;;;;;5072095;28;20286;-70
2022/03/13 00:22:30;;;;;;;10.77;6.90;;;0.10;67.10;;;;;;5071485;28;22029;-72
2022/03/13 00:24:56;;;;;;;7.60;6.80;;;0.10;66.50;;;;;;5071319;28;20172;-72
2022/03/13 00:27:22;;;;;;;8.63;7.10;;;0.10;66.50;;;;;;5072664;28;20250;-72
2022/03/13 00:29:48;;;;;;;6.80;6.10;;;0.10;65.90;;;;;;5067749;28;20541;-71
2022/03/13 00:32:14;;;;;;;8.07;6.60;;;0.00;65.10;;;;;;5065579;28;20258;-72
2022/03/13 00:34:40;;;;;;;9.60;6.83;;;0.10;65.00;;;;;;5071946;28;20254;-72
2022/03/13 00:37:05;;;;;;;9.40;6.67;;;0.00;64.90;;;;;;5072551;28;20670;-72
2022/03/13 00:39:31;;;;;;;11.53;6.20;;;0.10;63.90;;;;;;5072185;28;20199;-74
2022/03/13 00:41:57;;;;;;;8.77;6.17;;;0.00;64.20;;;;;;5066211;28;20230;-72
2022/03/13 00:44:22;;;;;;;7.93;6.13;;;0.00;64.20;;;;;;5070935;28;20789;-72
2022/03/13 00:46:48;;;;;;;8.10;6.13;;;-0.10;64.10;;;;;;5069039;28;20182;-72
2022/03/13 00:49:14;;;;;;;7.03;6.33;;;-0.10;63.70;;;;;;5072225;28;20229;-72
2022/03/13 00:51:39;;;;;;;7.20;5.77;;;-0.10;63.70;;;;;;5073927;28;20182;-72
2022/03/13 00:54:05;;;;;;;7.57;6.13;;;-0.10;63.70;;;;;;5072928;28;20246;-72
2022/03/13 00:56:31;;;;;;;6.70;6.10;;;-0.10;64.10;;;;;;5072633;28;20221;-73
2022/03/13 00:58:58;;;;;;;7.67;5.73;;;-0.20;64.00;;;;;;5067729;28;20613;-73
2022/03/13 01:01:23;;;;;;;7.93;6.40;;;-0.20;63.90;;;;;;5073202;28;20250;-73
2022/03/13 01:03:53;;;;;;;9.07;6.87;;;-0.20;64.00;;;;;;5067542;28;20622;-72
2022/03/13 01:06:21;;;;;;;10.27;6.80;;;-0.20;64.60;;;;;;5069049;28;20170;-72
2022/03/13 01:08:47;;;;;;;10.17;6.30;;;-0.30;65.20;;;;;;5069764;28;20600;-72
2022/03/13 01:11:18;;;;;;;8.30;7.17;;;-0.30;65.90;;;;;;5076278;28;20171;-72
2022/03/13 01:13:45;;;;;;;7.07;6.30;;;-0.30;67.10;;;;;;5070466;28;20195;-72
2022/03/13 01:16:15;;;;;;;9.23;6.53;;;-0.40;67.90;;;;;;5068741;28;20318;-71
2022/03/13 01:18:45;;;;;;;9.13;7.20;;;-0.50;68.00;;;;;;5072085;28;20167;-72
2022/03/13 01:21:12;;;;;;;8.63;6.30;;;-0.50;68.60;;;;;;5077466;28;20239;-72
2022/03/13 01:23:53;;;;;;;7.10;6.40;;;-0.60;68.50;;;;;;5070989;28;20215;-72
2022/03/13 01:26:22;;;;;;;8.43;6.50;;;-0.60;68.80;;;;;;5070197;28;20198;-73
2022/03/13 01:28:50;;;;;;;8.77;6.23;;;-0.60;68.30;;;;;;5068411;28;20324;-72
2022/03/13 01:31:19;;;;;;;9.13;6.57;;;-0.60;68.00;;;;;;5071435;28;20231;-72
2022/03/13 01:33:45;;;;;;;9.83;7.07;;;-0.60;67.90;;;;;;5072090;28;20206;-72
2022/03/13 01:36:12;;;;;;;7.83;6.87;;;-0.60;67.80;;;;;;5073204;28;20179;-72
2022/03/13 01:38:38;;;;;;;9.20;6.37;;;-0.60;67.10;;;;;;5063911;28;20182;-73
2022/03/13 01:41:03;;;;;;;7.00;6.30;;;-0.50;67.00;;;;;;5070070;28;20203;-73
2022/03/13 01:43:31;;;;;;;6.93;6.23;;;-0.50;66.40;;;;;;5073115;28;20557;-71
2022/03/13 01:45:58;;;;;;;7.13;6.13;;;-0.50;66.10;;;;;;5058961;28;20826;-71
2022/03/13 01:48:27;;;;;;;7.80;6.83;;;-0.50;65.50;;;;;;5070524;28;20179;-71
2022/03/13 01:50:54;;;;;;;6.63;5.93;;;-0.50;65.60;;;;;;5070251;28;20182;-71
2022/03/13 01:53:21;;;;;;;9.07;6.10;;;-0.60;65.80;;;;;;5074962;28;20207;-72
2022/03/13 01:55:48;;;;;;;11.00;6.17;;;-0.60;65.90;;;;;;5072442;28;20174;-72
2022/03/13 01:58:15;;;;;;;9.80;7.13;;;-0.60;65.30;;;;;;5067979;28;20516;-72
2022/03/13 02:00:40;;;;;;;7.20;6.17;;;-0.60;65.20;;;;;;5070436;28;20207;-73
2022/03/13 02:03:06;;;;;;;9.37;5.87;;;-0.70;65.70;;;;;;5074024;28;20615;-72
2022/03/13 02:05:35;;;;;;;6.73;6.07;;;-0.80;65.70;;;;;;5068939;28;20205;-73
2022/03/13 02:08:18;;;;;;;6.80;6.10;;;-0.90;65.50;;;;;;5058746;28;20175;-73
2022/03/13 02:10:43;;;;;;;6.87;6.03;;;-0.90;65.10;;;;;;5063517;28;20186;-73
2022/03/13 02:13:11;;;;;;;7.17;6.43;;;-0.80;64.80;;;;;;5074837;28;20200;-73
2022/03/13 02:15:37;;;;;;;7.00;6.20;;;-0.90;64.90;;;;;;5064592;28;20176;-73
2022/03/13 02:18:04;;;;;;;5.60;5.10;;;-0.90;64.90;;;;;;5064602;28;20199;-73
2022/03/13 02:20:34;;;;;;;6.97;6.23;;;-0.90;64.70;;;;;;5070292;28;20225;-73
2022/03/13 02:23:01;;;;;;;6.80;5.70;;;-0.90;64.80;;;;;;5071113;28;20737;-73
2022/03/13 02:25:31;;;;;;;6.73;6.03;;;-0.90;64.00;;;;;;5067765;28;20202;-72
2022/03/13 02:27:58;;;;;;;11.57;6.87;;;-0.90;63.70;;;;;;5069914;28;20539;-72
2022/03/13 02:30:26;;;;;;;8.10;6.20;;;-0.90;63.40;;;;;;5070231;28;20183;-72
2022/03/13 02:32:53;;;;;;;7.13;6.23;;;-0.90;63.80;;;;;;5072501;28;20210;-72
2022/03/13 02:35:18;;;;;;;10.13;6.73;;;-1.00;64.10;;;;;;5075997;28;20171;-72
2022/03/13 02:37:44;;;;;;;9.57;6.90;;;-1.00;64.30;;;;;;5054652;28;20634;-71
2022/03/13 02:40:30;;;;;;;7.43;6.23;;;-1.10;64.50;;;;;;5067763;28;20207;-72
2022/03/13 02:42:56;;;;;;;8.00;6.40;;;-1.00;64.80;;;;;;5070023;28;20207;-72
2022/03/13 02:45:36;;;;;;;7.50;6.60;;;-1.10;65.20;;;;;;5070688;28;20177;-72
2022/03/13 02:48:03;;;;;;;7.23;6.27;;;-1.10;65.30;;;;;;5066509;28;20184;-72
2022/03/13 02:50:29;;;;;;;7.27;6.53;;;-1.20;65.20;;;;;;5070281;28;20186;-72
2022/03/13 02:52:55;;;;;;;11.63;7.10;;;-1.20;65.40;;;;;;5065359;28;20198;-72
2022/03/13 02:55:20;;;;;;;8.80;6.33;;;-1.20;65.70;;;;;;5068294;28;20179;-73
2022/03/13 02:57:46;;;;;;;9.03;6.23;;;-1.20;66.00;;;;;;5069816;28;20259;-72
2022/03/13 03:00:14;;;;;;;6.40;5.57;;;-1.20;65.90;;;;;;5070378;28;20197;-72
2022/03/13 03:02:39;;;;;;;7.33;6.63;;;-1.20;65.90;;;;;;5065394;28;20206;-72
2022/03/13 03:05:09;;;;;;;8.07;6.43;;;-1.20;65.80;;;;;;5062482;28;20214;-73
2022/03/13 03:07:36;;;;;;;6.43;5.73;;;-1.30;65.80;;;;;;5063517;28;20190;-71
2022/03/13 03:10:09;;;;;;;6.67;5.57;;;-1.20;66.30;;;;;;5065675;28;20194;-74
2022/03/13 03:12:35;;;;;;;10.33;6.60;;;-1.20;66.10;;;;;;5062819;28;20222;-73
2022/03/13 03:15:00;;;;;;;8.57;5.97;;;-1.20;65.70;;;;;;5065707;28;20215;-73
2022/03/13 03:17:26;;;;;;;10.07;6.47;;;-1.20;65.70;;;;;;5067079;28;20607;-73
2022/03/13 03:19:52;;;;;;;7.57;6.77;;;-1.20;65.80;;;;;;5061369;28;20203;-73
2022/03/13 03:22:17;;;;;;;8.63;6.77;;;-1.20;65.90;;;;;;5064787;28;20186;-72
2022/03/13 03:24:43;;;;;;;6.87;6.17;;;-1.30;66.00;;;;;;5067287;28;20286;-73
2022/03/13 03:27:09;;;;;;;6.83;5.90;;;-1.30;65.70;;;;;;5070070;28;20194;-71
2022/03/13 03:29:35;;;;;;;7.63;6.27;;;-1.30;65.60;;;;;;5066089;28;20179;-72
2022/03/13 03:32:02;;;;;;;12.43;6.30;;;-1.30;65.50;;;;;;5079228;28;20698;-72
2022/03/13 03:34:28;;;;;;;8.87;5.87;;;-1.30;65.80;;;;;;5073235;28;20205;-72
2022/03/13 03:37:00;;;;;;;6.43;5.83;;;-1.40;66.00;;;;;;5072919;28;20172;-71
2022/03/13 03:39:27;;;;;;;7.83;5.60;;;-1.40;65.80;;;;;;5067465;28;20225;-72
2022/03/13 03:41:54;;;;;;;7.80;6.97;;;-1.40;65.60;;;;;;5069989;28;20578;-72
2022/03/13 03:44:21;;;;;;;6.57;5.83;;;-1.40;66.00;;;;;;5072748;28;20190;-71
2022/03/13 03:46:48;;;;;;;6.87;6.17;;;-1.40;65.60;;;;;;5067150;28;20183;-71
2022/03/13 03:49:14;;;;;;;8.23;6.70;;;-1.40;65.10;;;;;;5066543;28;20180;-71
2022/03/13 03:51:40;;;;;;;6.57;5.93;;;-1.30;65.50;;;;;;5072033;28;20190;-72
2022/03/13 03:54:07;;;;;;;7.53;6.40;;;-1.40;64.90;;;;;;5066650;28;20697;-72
2022/03/13 03:56:34;;;;;;;12.20;6.53;;;-1.40;65.50;;;;;;5065426;28;20198;-73
2022/03/13 03:59:00;;;;;;;10.27;6.07;;;-1.40;65.40;;;;;;5070060;28;20266;-72
2022/03/13 04:01:26;;;;;;;7.53;6.13;;;-1.40;65.50;;;;;;5074855;28;20171;-72
2022/03/13 04:03:52;;;;;;;6.33;5.73;;;-1.50;65.30;;;;;;5078397;28;20723;-72
2022/03/13 04:06:19;;;;;;;8.27;6.63;;;-1.40;65.10;;;;;;5070917;28;20178;-72
2022/03/13 04:08:45;;;;;;;7.97;6.67;;;-1.40;65.50;;;;;;5076357;28;20176;-72
2022/03/13 04:11:12;;;;;;;6.67;5.57;;;-1.50;66.10;;;;;;5064739;28;20176;-72
2022/03/13 04:13:38;;;;;;;9.40;6.97;;;-1.50;66.00;;;;;;5069930;28;20285;-72
2022/03/13 04:16:08;;;;;;;7.27;6.27;;;-1.50;66.70;;;;;;5073414;28;20186;-72
2022/03/13 04:18:35;;;;;;;7.47;6.20;;;-1.50;66.70;;;;;;5064984;28;20175;-72
2022/03/13 04:21:03;;;;;;;7.13;6.20;;;-1.60;67.40;;;;;;5073339;28;20217;-72
2022/03/13 04:23:28;;;;;;;8.10;6.40;;;-1.70;67.60;;;;;;5071360;28;20689;-72
2022/03/13 04:25:54;;;;;;;8.97;6.57;;;-1.70;66.90;;;;;;5067766;28;20257;-73
2022/03/13 04:28:19;;;;;;;7.60;6.20;;;-1.70;66.50;;;;;;5066666;28;20246;-72
2022/03/13 04:30:49;;;;;;;9.83;7.07;;;-1.60;66.50;;;;;;5061686;28;20176;-73
2022/03/13 04:33:16;;;;;;;6.60;5.97;;;-1.60;66.00;;;;;;5070766;28;20218;-73
2022/03/13 04:35:42;;;;;;;5.93;5.33;;;-1.60;66.40;;;;;;5073720;28;20168;-74
2022/03/13 04:38:08;;;;;;;6.97;6.07;;;-1.60;66.90;;;;;;5071846;28;20193;-72
2022/03/13 04:40:34;;;;;;;5.97;5.37;;;-1.60;66.80;;;;;;5059206;28;20686;-73
2022/03/13 04:43:01;;;;;;;9.03;6.00;;;-1.70;67.30;;;;;;5062295;28;20195;-73
2022/03/13 04:45:27;;;;;;;7.60;6.20;;;-1.70;66.50;;;;;;5059889;28;20168;-72
2022/03/13 04:47:53;;;;;;;7.67;5.57;;;-1.70;65.80;;;;;;5066131;28;20176;-72
2022/03/13 04:50:19;;;;;;;6.47;5.87;;;-1.70;66.00;;;;;;5062707;28;20183;-72
2022/03/13 04:52:44;;;;;;;7.80;5.77;;;-1.70;66.80;;;;;;5060811;28;21005;-73
2022/03/13 04:55:10;;;;;;;7.67;6.00;;;-1.80;66.70;;;;;;5070306;28;20187;-73
2022/03/13 04:57:36;;;;;;;8.03;6.27;;;-1.80;66.30;;;;;;5067583;28;20187;-72
2022/03/13 05:00:02;;;;;;;8.53;6.30;;;-1.90;66.60;;;;;;5070165;28;20237;-73
2022/03/13 05:02:28;;;;;;;14.07;5.97;;;-1.90;66.30;;;;;;5071307;28;20217;-72
2022/03/13 05:04:54;;;;;;;8.07;5.43;;;-1.90;66.50;;;;;;5063072;28;20638;-72
2022/03/13 05:07:20;;;;;;;7.13;5.83;;;-1.90;65.60;;;;;;5060859;28;20182;-72
2022/03/13 05:09:46;;;;;;;8.27;6.23;;;-1.80;65.70;;;;;;5058916;28;20176;-73
2022/03/13 05:12:14;;;;;;;7.87;6.23;;;-1.80;65.70;;;;;;5060119;28;20553;-73
2022/03/13 05:14:40;;;;;;;7.47;5.90;;;-1.80;66.40;;;;;;5060049;28;20230;-73
2022/03/13 05:17:05;;;;;;;8.57;5.90;;;-1.80;66.30;;;;;;5059131;28;20270;-73
2022/03/13 05:19:31;;;;;;;7.50;5.60;;;-1.90;66.30;;;;;;5058538;28;20368;-72
2022/03/13 05:21:57;;;;;;;9.00;6.00;;;-1.90;65.90;;;;;;5062679;28;20212;-73
2022/03/13 05:24:22;;;;;;;6.50;5.57;;;-1.90;66.10;;;;;;5058374;28;20219;-73
2022/03/13 05:26:48;;;;;;;6.10;5.60;;;-1.90;66.60;;;;;;5063604;28;20187;-73
2022/03/13 05:29:14;;;;;;;7.27;5.80;;;-2.00;66.10;;;;;;5063179;28;20579;-72
2022/03/13 05:31:40;;;;;;;7.30;5.87;;;-2.00;66.50;;;;;;5065531;28;20187;-73
2022/03/13 05:34:07;;;;;;;6.80;5.80;;;-2.00;66.50;;;;;;5066604;28;20207;-73
2022/03/13 05:36:32;;;;;;;6.33;5.57;;;-2.00;66.70;;;;;;5069385;28;20175;-73
2022/03/13 05:38:58;;;;;;;7.47;6.00;;;-2.00;67.00;;;;;;5064629;28;20330;-73
2022/03/13 05:41:27;;;;;;;7.30;5.77;;;-2.00;67.20;;;;;;5072727;28;20171;-74
2022/03/13 05:43:53;;;;;;;9.97;6.13;;;-2.00;67.60;;;;;;5071861;28;20191;-73
2022/03/13 05:46:19;;;;;;;6.80;6.10;;;-2.00;67.10;;;;;;5067774;28;20186;-73
2022/03/13 05:48:45;;;;;;;7.33;5.93;;;-2.00;67.30;;;;;;5063989;28;20175;-74
2022/03/13 05:51:10;;;;;;;7.60;6.17;;;-2.00;67.20;;;;;;5064182;28;20182;-74
2022/03/13 05:53:36;;;;;;;8.07;6.13;;;-1.90;67.10;;;;;;5059884;28;20207;-73
2022/03/13 05:56:01;;;;;;;7.20;6.00;;;-1.90;67.00;;;;;;5073533;28;20240;-73
2022/03/13 05:58:28;;;;;;;6.47;5.87;;;-1.90;66.90;;;;;;5064419;28;20247;-73
2022/03/13 06:01:08;;;;;;;6.87;6.17;;;-1.80;68.00;;;;;;5062461;28;20213;-73
2022/03/13 06:03:34;;;;;;;8.00;6.13;;;-1.80;68.70;;;;;;5061795;28;20195;-73
2022/03/13 06:06:03;;;;;;;9.27;6.90;;;-1.80;68.80;;;;;;5061458;28;20172;-73
2022/03/13 06:08:30;;;;;;;7.40;6.60;;;-1.80;68.80;;;;;;5068059;28;20171;-73
2022/03/13 06:10:55;;;;;;;9.47;6.20;;;-1.70;68.50;;;;;;5063092;28;20917;-73
2022/03/13 06:13:22;;;;;;;7.73;6.53;;;-1.70;69.00;;;;;;5064875;28;20222;-72
2022/03/13 06:15:49;;;;;;;8.37;5.93;;;-1.70;68.90;;;;;;5063632;28;20180;-73
2022/03/13 06:18:15;;;;;;;8.10;6.07;;;-1.70;69.40;;;;;;5071504;28;20205;-73
2022/03/13 06:20:41;;;;;;;8.10;5.97;;;-1.70;68.10;;;;;;5067466;28;20227;-73
2022/03/13 06:23:08;;;;;;;6.60;6.00;;;-1.60;68.70;;;;;;5064827;28;20230;-73
2022/03/13 06:25:34;;;;;;;6.40;5.80;;;-1.50;67.80;;;;;;5061372;28;20187;-73
2022/03/13 06:27:59;;;;;;;9.67;6.40;;;-1.50;67.80;;;;;;5067492;28;20719;-73
2022/03/13 06:30:25;;;;;;;8.53;5.70;;;-1.50;67.10;;;;;;5062283;28;20277;-72
2022/03/13 06:32:53;;;;;;;8.20;5.67;;;-1.40;65.90;;;;;;5071660;28;20200;-72
2022/03/13 06:35:24;;;;;;;6.87;6.17;;;-1.30;65.60;;;;;;5061296;28;20199;-73
2022/03/13 06:37:51;;;;;;;8.83;6.10;;;-1.30;65.50;;;;;;5057550;28;20183;-73
2022/03/13 06:40:18;;;;;;;7.70;6.20;;;-1.20;65.30;;;;;;5056831;28;20260;-73
2022/03/13 06:42:44;;;;;;;8.27;6.07;;;-1.10;65.40;;;;;;5056157;28;20215;-73
2022/03/13 06:45:10;;;;;;;7.23;6.33;;;-1.10;65.90;;;;;;5057761;28;20670;-74
2022/03/13 06:47:37;;;;;;;6.37;5.53;;;-1.00;64.90;;;;;;5057580;28;20225;-74
2022/03/13 06:50:03;;;;;;;6.07;5.57;;;-0.90;65.30;;;;;;5064140;28;20186;-74
2022/03/13 06:52:29;;;;;;;9.73;6.23;;;-0.80;64.70;;;;;;5057543;28;20233;-74
2022/03/13 06:54:54;;;;;;;7.20;5.93;;;-0.80;64.60;;;;;;5061228;28;20183;-73
2022/03/13 06:57:20;;;;;;;8.40;6.80;;;-0.70;64.40;;;;;;5059815;28;20546;-73
2022/03/13 06:59:46;;;;;;;7.53;6.00;;;-0.70;63.50;;;;;;5054734;28;20200;-73
2022/03/13 07:02:13;;;;;;;7.20;5.80;;;-0.60;63.70;;;;;;5058968;28;20189;-73
2022/03/13 07:04:39;;;;;;;6.97;5.63;;;-0.50;63.70;;;;;;5055133;28;20187;-73
2022/03/13 07:07:05;;;;;;;7.83;6.27;;;-0.40;63.60;;;;;;5056191;28;20221;-73
2022/03/13 07:09:33;;;;;;;11.20;6.53;;;-0.30;63.30;;;;;;5054338;28;20262;-73
2022/03/13 07:11:59;;;;;;;7.27;6.23;;;-0.30;62.50;;;;;;5056116;28;20879;-73
2022/03/13 07:14:24;;;;;;;8.07;6.40;;;-0.20;62.50;;;;;;5054389;28;20191;-70
2022/03/13 07:16:51;;;;;;;6.47;5.73;;;-0.20;61.80;;;;;;5053562;28;20836;-70
2022/03/13 07:19:17;;;;;;;9.13;5.53;;;-0.10;62.00;;;;;;5053908;28;20210;-71
2022/03/13 07:21:43;;;;;;;6.43;5.63;;;0.00;62.10;;;;;;5054183;28;20175;-71
2022/03/13 07:24:10;;;;;;;7.37;5.93;;;0.20;61.70;;;;;;5054616;28;20226;-71
2022/03/13 07:26:35;;;;;;;8.03;5.73;;;0.30;61.30;;;;;;5053015;28;20274;-71
2022/03/13 07:29:02;;;;;;;6.40;5.30;;;0.30;61.00;;;;;;5054062;28;20636;-73
2022/03/13 07:31:31;;;;;;;6.97;6.13;;;0.30;60.50;;;;;;5055600;28;20180;-73
2022/03/13 07:33:57;;;;;;;8.17;6.10;;;0.40;60.90;;;;;;5055124;28;20747;-72
2022/03/13 07:36:23;;;;;;;8.07;6.27;;;0.50;60.50;;;;;;5053314;28;20194;-72
2022/03/13 07:38:49;;;;;;;8.43;6.30;;;0.70;60.20;;;;;;5067303;28;20262;-72
2022/03/13 07:41:15;;;;;;;7.13;5.53;;;0.80;60.00;;;;;;5064611;28;20198;-72
2022/03/13 07:43:40;;;;;;;7.20;6.00;;;0.80;60.00;;;;;;5068124;28;20190;-72
2022/03/13 07:46:06;;;;;;;6.63;5.40;;;0.80;59.30;;;;;;5066600;28;20179;-72
2022/03/13 07:48:34;;;;;;;8.73;5.97;;;0.90;59.80;;;;;;5069844;28;20520;-72
2022/03/13 07:51:00;;;;;;;6.07;5.47;;;0.90;59.40;;;;;;5059793;28;20180;-72
2022/03/13 07:53:28;;;;;;;5.90;5.30;;;1.10;59.00;;;;;;5056316;28;20613;-72
2022/03/13 07:55:54;;;;;;;6.57;5.80;;;1.20;59.20;;;;;;5064240;28;20179;-70
2022/03/13 07:58:20;;;;;;;6.57;5.63;;;1.30;59.00;;;;;;5071786;28;20176;-69
2022/03/13 08:00:46;;;;;;;5.90;5.33;;;1.40;58.40;;;;;;5069190;28;20206;-69
2022/03/13 08:03:12;;;;;;;7.17;5.47;;;1.50;57.80;;;;;;5067162;28;20211;-69
2022/03/13 08:05:38;;;;;;;7.70;5.50;;;1.50;55.50;;;;;;5065545;28;20197;-69
2022/03/13 08:08:04;;;;;;;5.80;5.30;;;1.60;55.80;;;;;;5066383;28;20667;-68
2022/03/13 08:10:30;;;;;;;5.83;5.17;;;1.70;55.40;;;;;;5069670;28;20193;-68
2022/03/13 08:12:55;;;;;;;7.60;5.43;;;1.80;55.20;;;;;;5062719;28;20210;-67
2022/03/13 08:15:22;;;;;;;7.10;5.23;;;1.90;55.40;;;;;;5066131;28;20186;-70
2022/03/13 08:17:47;;;;;;;8.20;6.10;;;2.00;55.40;;;;;;5071977;28;20175;-71
2022/03/13 08:20:14;;;;;;;6.93;5.57;;;2.20;54.50;;;;;;5072991;28;20213;-69
2022/03/13 08:22:39;;;;;;;5.47;4.97;;;2.30;54.80;;;;;;5072530;28;20184;-69
2022/03/13 08:25:06;;;;;;;5.77;4.93;;;2.40;54.40;;;;;;5069067;28;20199;-69
2022/03/13 08:27:33;;;;;;;4.90;4.50;;;2.50;54.00;;;;;;5066419;28;20238;-69
2022/03/13 08:29:58;;;;;;;5.23;4.73;;;2.60;54.30;;;;;;5072497;28;20184;-70
2022/03/13 08:32:24;;;;;;;5.20;4.60;;;2.70;52.90;;;;;;5074487;28;20174;-69
2022/03/13 08:34:52;;;;;;;4.87;4.30;;;2.90;53.20;;;;;;5066144;28;20206;-70
2022/03/13 08:37:18;;;;;;;5.27;4.77;;;3.00;53.30;;;;;;5061234;28;20190;-69
2022/03/13 08:39:44;;;;;;;5.57;5.03;;;3.00;53.70;;;;;;5062590;28;20206;-69
2022/03/13 08:42:10;;;;;;;6.83;5.23;;;3.20;53.70;;;;;;5069799;28;20226;-70
2022/03/13 08:44:35;;;;;;;5.87;5.20;;;3.30;55.00;;;;;;5072678;28;20195;-72
2022/03/13 08:47:01;;;;;;;7.03;5.13;;;3.40;54.20;;;;;;5066108;28;20564;-72
2022/03/13 08:49:28;;;;;;;6.87;5.47;;;3.50;54.30;;;;;;5066870;28;20188;-72
2022/03/13 08:51:54;;;;;;;7.77;5.20;;;3.60;54.50;;;;;;5065663;28;20270;-71
2022/03/13 08:54:20;;;;;;;5.80;5.30;;;3.90;53.90;;;;;;5068919;28;20631;-69
2022/03/13 08:56:49;;;;;;;5.83;5.17;;;4.30;53.20;;;;;;5065906;28;20176;-69
2022/03/13 08:59:15;;;;;;;5.50;5.00;;;4.90;51.90;;;;;;5079212;28;20679;-69
2022/03/13 09:01:42;;;;;;;6.20;4.93;;;7.30;49.50;;;;;;5068193;28;20175;-72
2022/03/13 09:04:08;;;;;;;4.93;4.43;;;10.20;44.00;;;;;;5069003;28;20207;-72
2022/03/13 09:06:33;;;;;;;5.17;4.67;;;12.10;39.50;;;;;;5069846;28;20175;-72
2022/03/13 09:08:59;;;;;;;6.50;4.70;;;12.10;37.70;;;;;;5065178;28;20711;-71
2022/03/13 09:11:24;;;;;;;5.32;4.45;;;11.20;37.60;;;;;;5071556;28;20175;-72
2022/03/13 09:13:50;;;;;;;5.43;4.93;;;10.20;38.70;;;;;;5078313;28;20198;-71
2022/03/13 09:16:15;;;;;;;5.45;4.63;;;9.50;41.50;;;;;;5068696;28;20618;-70
2022/03/13 09:18:41;;;;;;;7.13;5.07;;;8.80;42.20;;;;;;5058504;28;20187;-70
2022/03/13 09:21:08;;;;;;;5.90;4.55;;;8.30;42.50;;;;;;5070142;28;20231;-71
2022/03/13 09:23:34;;;;;;;5.63;4.80;;;8.00;42.90;;;;;;5072667;28;20195;-71
2022/03/13 09:25:59;;;;;;;5.68;5.05;;;8.10;43.30;;;;;;5064861;28;20195;-71
2022/03/13 09:28:26;;;;;;;4.90;4.43;;;9.80;42.50;;;;;;5062257;28;20163;-71
2022/03/13 09:30:52;;;;;;;5.95;4.55;;;12.70;39.00;;;;;;5068472;28;20519;-70
2022/03/13 09:33:18;;;;;;;5.53;4.82;;;15.60;35.50;;;;;;5057559;28;20197;-70
2022/03/13 09:35:43;;;;;;;4.57;4.28;;;17.70;32.10;;;;;;5076414;28;20184;-72
2022/03/13 09:38:09;;;;;;;4.30;3.83;;;19.90;30.50;;;;;;5063121;28;20195;-74
2022/03/13 09:40:35;;;;;;;5.15;4.57;;;21.60;28.90;;;;;;5065696;28;20278;-74
2022/03/13 09:43:05;;;;;;;4.70;4.30;;;22.90;28.00;;;;;;5070418;28;20269;-73
2022/03/13 09:45:31;;;;;;;6.68;4.65;;;23.50;26.80;;;;;;5066921;28;20234;-74
2022/03/13 09:47:57;;;;;;;4.57;4.18;;;24.10;26.40;;;;;;5067251;28;20217;-74
2022/03/13 09:50:23;;;;;;;4.97;4.50;;;25.00;26.40;;;;;;5068162;28;20642;-74
2022/03/13 09:52:49;;;;;;;5.45;4.35;;;25.70;25.30;;;;;;5065752;28;20203;-72
2022/03/13 09:55:15;;;;;;;4.22;3.92;;;26.30;25.00;;;;;;5063439;28;20178;-71
2022/03/13 09:57:43;;;;;;;4.30;3.88;;;26.80;25.10;;;;;;5063550;28;20187;-72
2022/03/13 10:00:12;;;;;;;4.70;4.30;;;27.10;24.30;;;;;;5066207;28;20293;-72
2022/03/13 10:02:38;;;;;;;4.72;4.32;;;27.40;24.20;;;;;;5073981;28;20175;-72
2022/03/13 10:05:15;;;;;;;4.25;3.95;;;27.20;23.90;;;;;;5068164;28;20181;-73
2022/03/13 10:08:01;;;;;;;4.70;4.40;;;27.10;24.30;;;;;;5076541;28;20194;-72
2022/03/13 10:10:42;;;;;;;4.63;4.22;;;27.30;24.40;;;;;;5060483;28;20180;-72
2022/03/13 10:13:08;;;;;;;4.55;4.25;;;27.30;24.10;;;;;;5063458;28;20917;-71
2022/03/13 10:15:41;;;;;;;4.90;4.40;;;27.70;23.60;;;;;;5065759;28;20177;-71
2022/03/13 10:18:26;;;;;;;4.88;4.47;;;28.50;24.00;;;;;;5077670;28;20238;-73
2022/03/13 10:20:53;;;;;;;4.65;4.25;;;28.80;24.10;;;;;;5069665;28;20282;-74
2022/03/13 10:23:22;;;;;;;5.03;4.55;;;29.30;23.70;;;;;;5058258;28;20199;-74
2022/03/13 10:25:53;;;;;;;5.35;4.20;;;29.20;23.30;;;;;;5062259;28;20182;-74
2022/03/13 10:28:30;;;;;;;5.30;4.80;;;29.30;23.00;;;;;;5062608;28;20210;-74
2022/03/13 10:30:59;;;;;;;5.15;4.30;;;29.60;22.60;;;;;;5070114;28;20177;-74
2022/03/13 10:33:44;;;;;;;4.90;4.40;;;29.30;22.70;;;;;;5059326;28;20211;-74
2022/03/13 10:36:11;;;;;;;5.13;4.28;;;29.30;22.30;;;;;;5054280;28;20187;-74
2022/03/13 10:38:38;;;;;;;4.38;4.00;;;29.70;22.60;;;;;;5057443;28;20193;-74
2022/03/13 10:41:08;;;;;;;4.30;3.90;;;30.00;22.60;;;;;;5068062;28;20213;-74
2022/03/13 10:43:49;;;;;;;5.72;4.70;;;30.50;22.40;;;;;;5055235;28;20206;-74
2022/03/13 10:46:25;;;;;;;4.80;4.40;;;29.80;22.20;;;;;;5069323;28;20171;-75
2022/03/13 10:48:52;;;;;;;5.28;4.82;;;30.10;22.20;;;;;;5064471;28;20634;-76
2022/03/13 10:51:57;;;;;;;5.05;4.65;;;30.60;21.60;;;;;;5066241;28;20560;-75
2022/03/13 10:54:31;;;;;;;4.75;4.28;;;30.30;22.00;;;;;;5060160;28;20313;-74
2022/03/13 10:57:05;;;;;;;5.13;4.72;;;30.70;22.10;;;;;;5062802;28;20175;-73
2022/03/13 10:59:30;;;;;;;4.53;4.13;;;31.20;21.60;;;;;;5065910;28;20203;-74
2022/03/13 11:02:22;;;;;;;4.43;4.03;;;31.80;21.90;;;;;;5064975;28;20202;-74
2022/03/13 11:04:52;;;;;;;4.82;4.43;;;32.20;21.60;;;;;;5063170;28;20377;-74
2022/03/13 11:07:19;;;;;;;4.45;4.05;;;31.80;21.90;;;;;;5061796;28;20175;-75
2022/03/13 11:09:45;;;;;;;4.60;4.30;;;31.40;21.70;;;;;;5060217;28;20193;-75
2022/03/13 11:12:20;;;;;;;4.50;4.15;;;32.00;21.60;;;;;;5069191;28;20219;-74
2022/03/13 11:14:52;;;;;;;4.35;3.95;;;32.10;21.50;;;;;;5069334;28;20209;-74
2022/03/13 11:17:25;;;;;;;4.38;3.97;;;32.30;21.60;;;;;;5064460;28;20654;-74
2022/03/13 11:19:53;;;;;;;4.32;4.03;;;32.50;21.80;;;;;;5064514;28;20203;-74
2022/03/13 11:22:20;;;;;;;5.35;4.50;;;32.60;21.80;;;;;;5071168;28;20185;-72
2022/03/13 11:24:51;;;;;;;7.18;4.57;;;32.90;22.00;;;;;;5072835;28;20186;-73
2022/03/13 11:27:17;;;;;;;4.28;3.97;;;33.50;21.70;;;;;;5068878;28;20194;-72
2022/03/13 11:29:53;;;;;;;4.47;4.18;;;31.90;21.20;;;;;;5065519;28;20210;-71
2022/03/13 11:32:46;;;;;;;4.65;4.30;;;30.80;22.30;;;;;;5073282;28;20183;-71
2022/03/13 11:35:18;;;;;;;4.28;3.97;;;30.90;22.60;;;;;;5070191;28;20182;-72
2022/03/13 11:37:51;;;;;;;4.47;4.20;;;32.20;22.00;;;;;;5065015;28;20587;-71
2022/03/13 11:40:28;;;;;;;4.97;4.68;;;32.60;21.40;;;;;;5067771;28;20203;-72
2022/03/13 11:43:03;;;;;;;5.53;5.03;;;31.90;21.60;;;;;;5063621;28;20709;-71
2022/03/13 11:45:31;;;;;;;4.80;4.28;;;31.40;22.40;;;;;;5060824;28;20187;-72
2022/03/13 11:48:14;;;;;;;5.00;4.60;;;31.40;21.70;;;;;;5077759;28;20261;-72
2022/03/13 11:50:47;;;;;;;4.60;4.22;;;30.80;22.20;;;;;;5067729;28;20180;-72
2022/03/13 11:53:44;;;;;;;4.60;4.30;;;31.70;22.20;;;;;;5073793;28;20203;-72
2022/03/13 11:56:19;;;;;;;4.45;4.15;;;32.00;22.30;;;;;;5074335;28;20542;-74
2022/03/13 11:59:12;;;;;;;4.65;4.25;;;32.90;21.90;;;;;;5071690;28;20170;-73
2022/03/13 12:01:38;;;;;;;4.45;4.13;;;34.20;21.50;;;;;;5077432;28;20186;-73
2022/03/13 12:04:03;;;;;;;4.35;4.00;;;34.30;21.00;;;;;;5068921;28;20225;-73
2022/03/13 12:06:46;;;;;;;4.43;4.03;;;33.60;21.50;;;;;;5066461;28;20221;-73
2022/03/13 12:09:17;;;;;;;4.85;4.38;;;34.60;20.80;;;;;;5072903;28;20207;-74
2022/03/13 12:11:50;;;;;;;4.97;4.60;;;33.80;21.60;;;;;;5065508;28;20180;-73
2022/03/13 12:14:17;;;;;;;4.85;4.45;;;34.20;20.90;;;;;;5068895;28;21232;-72
2022/03/13 12:16:44;;;;;;;4.47;4.18;;;34.40;20.90;;;;;;5070508;28;20663;-73
2022/03/13 12:19:10;;;;;;;4.22;3.92;;;32.50;21.00;;;;;;5074513;28;20187;-72
2022/03/13 12:21:37;;;;;;;4.25;3.95;;;31.40;21.90;;;;;;5066536;28;20202;-72
2022/03/13 12:24:17;;;;;;;4.35;4.05;;;32.00;21.50;;;;;;5080462;28;20203;-72
2022/03/13 12:26:47;;;;;;;4.53;4.22;;;33.30;21.70;;;;;;5070659;28;20186;-73
2022/03/13 12:29:15;;;;;;;5.18;4.78;;;32.80;21.00;;;;;;5075091;28;20190;-73
2022/03/13 12:31:46;;;;;;;5.43;5.03;;;31.70;21.40;;;;;;5068717;28;20581;-72
2022/03/13 12:34:13;;;;;;;4.88;4.38;;;31.10;21.60;;;;;;5074718;28;20290;-72
2022/03/13 12:36:40;;;;;;;5.15;4.75;;;30.10;22.80;;;;;;5072212;28;20215;-72
2022/03/13 12:39:14;;;;;;;5.00;4.55;;;30.70;22.30;;;;;;5074224;28;20195;-72
2022/03/13 12:41:44;;;;;;;5.00;4.70;;;30.90;21.50;;;;;;5068495;28;20665;-73
2022/03/13 12:44:13;;;;;;;4.70;4.30;;;30.50;22.30;;;;;;5070998;28;20555;-72
2022/03/13 12:46:40;;;;;;;5.03;4.68;;;30.50;22.00;;;;;;5073523;28;20206;-72
2022/03/13 12:49:15;;;;;;;5.22;4.72;;;30.70;22.60;;;;;;5069002;28;20183;-73
2022/03/13 12:51:49;;;;;;;5.38;4.97;;;30.70;22.20;;;;;;5070232;28;20262;-70
2022/03/13 12:54:19;;;;;;;4.80;4.50;;;30.70;22.20;;;;;;5062180;28;20666;-71